Patrick AFB, FL

13:09 EST le 08 décembre 2016 (GMT -0500)
Patrick Air Force Base | | Change Station

Alt. 10 ft 28.24 °N, 80.60 °W | Updated 11 minutes ago

Ciel dégagé
Ciel dégagé
69 ° F
Paraît 69 ° F
N
6
Vent Variable Vent de Nord

Aujourd'hui
Haut(e) -- | Bas -- ° F
--% Risque de précip.
Hier
Haut(e) -- | Bas -- ° F
Precip. -- pouce
Pression 30.12 pouce
Visibilité 10.0 Miles terrestres
Nuages Ciel dégagé
Point de rosée 61 ° F
Humidité 73%
Précipitations 0.00 pouce
Profondeur de la couche neigeuse Non disponible.
7:02 AM 5:26 PM
Lune gibbeuse croissante, 65% visible
METAR KCOF 081758Z AUTO 36005KT 10SM CLR 21/16 A3011 RMK AO2 SLP200 T02080159 10208 20160 57022 $
Pression 30.12 pouce
Visibilité 10.0 Miles terrestres
Nuages Ciel dégagé
Point de rosée 61 ° F
Humidité 73%
Précipitations 0.00 pouce
Profondeur de la couche neigeuse Non disponible.
7:02 AM 5:26 PM
Lune gibbeuse croissante, 65% visible
METAR KCOF 081758Z AUTO 36005KT 10SM CLR 21/16 A3011 RMK AO2 SLP200 T02080159 10208 20160 57022 $

10-Day Weather Forecast

Almanac

Astronomie

Dec. 08, 2016 Lever Coucher
Temps réel
Crépuscule civil
Crépuscule nautique
Crépuscule astronomique
Lune
Durée de lumière visible
Longueur du jour
Tomorrow will be .
, % of the Moon is Illuminated

Extrêmes aujourd'hui

State Highs State Lows

Community

WunderPhotos

Upload Photos

1,956,277 Photos téléchargées !

WunderBlog® & News

Nearby

Qualité de l'air

  Qualité de l'air Indice de la qualité de l'air Polluant
Not available.

Épaisseur de neige

Station Depth Altitude

Activité sismique

Ville Distance Mag. Time & Date
Minimum magnitude displayed is 2.5.

Températures des eaux côtières

Lieu Température

Stations

Stations météo à proximité

Emplacement de la station Température Refroidissement éolien Point de rosée Humidité Vent Precip. Alt. Mise à jour Type
                   

Watches & Warnings

There are currently no watches in effect.